ADDS METAR Data INFO
IDs: Format: Raw Decoded Include TAF

Data at: 0143 UTC 26 Feb 2018

KINT 260054Z 23004KT 10SM CLR 18/12 A3006 RMK AO2 SLP171 T01780122
KINT 252354Z 17007KT 10SM OVC110 18/13 A3001 RMK AO2 SLP154 T01780128 10189 20178 58015
KINT 252254Z 18010G15KT 10SM SCT075 OVC090 18/13 A3004 RMK AO2 SLP164 T01830133
KINT 252154Z 19004KT 10SM OVC085 18/14 A3005 RMK AO2 SLP167 T01830139
KINT 252054Z 20003KT 10SM OVC090 19/13 A3005 RMK AO2 SLP168 T01890133 56003
KINT 251954Z 20006KT 10SM OVC095 18/14 A3005 RMK AO2 SLP170 T01830139
KINT 251854Z 21005KT 10SM OVC100 18/14 A3004 RMK AO2 SLP166 T01830144
KINT 251754Z VRB05KT 10SM OVC100 18/14 A3006 RMK AO2 SLP171 60002 T01780144 10189 20167 56011
KINT 251654Z 19005KT 10SM OVC095 17/14 A3007 RMK AO2 SLP173 T01720144
KINT 251554Z 19007KT 10SM OVC090 17/15 A3008 RMK AO2 RAE49 SLP177 P0000 T01670150
KINT 251454Z 23007KT 5SM -RA BR OVC070 17/16 A3009 RMK AO2 RAB01 SLP183 P0002 60002 T01720156 53034
KINT 251419Z 22006KT 5SM -RA BR SCT018 SCT049 OVC060 17/15 A3008 RMK AO2 RAB01 P0001 T01720150
KINT 251354Z 27009G14KT 10SM OVC019 18/14 A3007 RMK AO2 SLP176 T01830144
KINT 251341Z VRB06G17KT 10SM BKN021 OVC090 18/14 A3006 RMK AO2 T01830144
KINT 251254Z 22007G17KT 10SM FEW100 18/14 A3001 RMK AO2 SLP152 T01830144
KINT 251154Z 19006KT 10SM CLR 18/14 A2999 RMK AO2 SLP147 T01780144 10194 20178 56004
KINT 251054Z AUTO 20009G16KT 10SM CLR 18/14 A2999 RMK AO2 SLP147 T01780144
KINT 250954Z AUTO 18008KT 10SM CLR 18/14 A2999 RMK AO2 SLP147 T01780144
KINT 250854Z AUTO 19010G15KT 10SM FEW095 18/14 A3000 RMK AO2 SLP149 T01830144 58014
KINT 250754Z AUTO 19007G17KT 10SM CLR 18/14 A3002 RMK AO2 SLP154 T01830144
KINT 250654Z AUTO 18007KT 10SM CLR 19/14 A3003 RMK AO2 SLP161 T01890139
KINT 250554Z AUTO 19008G14KT 10SM CLR 19/14 A3004 RMK AO2 SLP164 T01940139 10222 20194 58002
KINT 250454Z AUTO 19008G14KT 10SM CLR 20/14 A3005 RMK AO2 SLP168 T02000139 402500078
KINT 250354Z AUTO 19008KT 10SM CLR 21/14 A3006 RMK AO2 SLP170 T02060144
KINT 250254Z AUTO 19008KT 10SM CLR 21/14 A3005 RMK AO2 SLP168 T02110139 58002
KINT 250154Z 18005KT 10SM CLR 21/14 A3006 RMK AO2 SLP172 T02110144
KINT 250054Z 18006KT 10SM BKN120 22/14 A3007 RMK AO2 SLP176 T02170144
KINT 242354Z 17005KT 10SM CLR 22/14 A3006 RMK AO2 SLP172 T02220144 10250 20217 53002
KINT 242254Z 20006KT 10SM FEW110 23/14 A3005 RMK AO2 SLP171 T02330139
KINT 242154Z 21009G17KT 170V250 10SM FEW046 24/14 A3005 RMK AO2 SLP170 T02440139
KINT 242054Z AUTO 23013G19KT 10SM FEW110 24/14 A3005 RMK AO2 SLP170 T02440139 56027
KINT 241954Z 22009G21KT 10SM FEW044 SCT095 25/14 A3008 RMK AO2 SLP178 T02500144
KINT 241854Z 22007G19KT 180V240 10SM SCT037 BKN046 23/14 A3009 RMK AO2 SLP183 T02330144
KINT 241754Z 22007G20KT 180V270 10SM CLR 23/15 A3014 RMK AO2 SLP199 60000 T02330150 10233 20100 58024
KINT 241654Z 20004KT 10SM BKN080 19/16 A3018 RMK AO2 RAE06 SLP214 P0000 T01940161
KINT 241554Z 21004KT 8SM -RA SCT017 BKN075 OVC090 19/16 A3020 RMK AO2 RAB36 SLP223 P0000 T01890161
KINT 241454Z 22008KT 10SM FEW012 17/14 A3021 RMK AO2 SLP226 T01720144 50000
KINT 241413Z 23007KT 10SM FEW006 16/14 A3021 RMK AO2 T01560139
KINT 241354Z 22007KT 9SM CLR 15/13 A3021 RMK AO2 SLP227 T01500133